»·PEaware :: EJA720 KTVL-KSBP

EJA720 :: KTVL-KSBP

FLIGHT INFORMATION

Flight Status: Arrived
Operator:
Netjets Aviation
More flights by this operator :: More flights under this callsign
Pilot: Shawn N. (11060)
Aircraft: GULFSTREAM G-1159C GULFSTREAM 4
(GLF4)
More flights by this aircraft type
Origin: KTVL Lake Tahoe
United States
Destination: KSBP San Luis Co Regl
United States
More flights between these airports :: More routes between these airports
Route: +PRB MQO
File this flight plan on PilotEdge
Remarks:
Altitude:
(Current/Filed)
31,000ft
Speed:
(Current/Filed)
450kts
Departed: 10-May-18 04:44 PM
Arrived: 10-May-18 05:29 PM
Distance/Time
Traveled:
222nm/0:45
Distance/Time
To Go:
Arrived

Flight Plot

Page will automatically refresh every two minutes.

Flight plan parsing failed; only flown route is shown


Map Options




Map Legend


Flown Route
Filed Route
Departure Airport
Arrival Airport
Navaid (VOR, NDB)
Fix

Horizontal Profiles

Position Reports

Time Latitude Longitude Heading Altitude Ground
Speed
10-May-18 16:37 38.892694 -119.997921 14 6242ft 0kts
10-May-18 16:38 38.892694 -119.997921 14 6242ft 0kts
10-May-18 16:39 38.892694 -119.997921 14 6242ft 0kts
10-May-18 16:40 38.892694 -119.997921 14 6242ft 0kts
10-May-18 16:41 38.892707 -119.997566 138 6242ft 3kts
10-May-18 16:42 38.892477 -119.996555 342 6242ft 3kts
10-May-18 16:43 38.898109 -119.995090 13 6242ft 25kts
10-May-18 16:44 38.873235 -120.001344 197 7603ft 198kts
10-May-18 16:45 38.807791 -119.977804 151 12404ft 310kts
10-May-18 16:46 38.727330 -120.011894 218 16568ft 365kts
10-May-18 16:47 38.627009 -120.049220 193 17496ft 385kts
10-May-18 16:48 38.521023 -120.071331 193 21538ft 402kts
10-May-18 16:49 38.404859 -120.094969 193 23038ft 471kts
10-May-18 16:50 38.267490 -120.122596 193 22976ft 498kts
10-May-18 16:51 38.135974 -120.149050 193 22985ft 483kts
10-May-18 16:52 38.002826 -120.175636 193 25399ft 482kts
10-May-18 16:53 37.874154 -120.201324 194 28832ft 482kts
10-May-18 16:54 37.750543 -120.225944 194 30963ft 490kts
10-May-18 16:55 37.609343 -120.253890 194 30932ft 493kts
10-May-18 16:56 37.474181 -120.280571 194 30906ft 494kts
10-May-18 16:57 37.338853 -120.307179 194 30886ft 494kts
10-May-18 16:58 37.204101 -120.333603 194 30881ft 494kts
10-May-18 16:59 37.068311 -120.360088 194 30883ft 494kts
10-May-18 17:00 36.933149 -120.386376 194 30900ft 494kts
10-May-18 17:01 36.814249 -120.409421 194 30893ft 494kts
10-May-18 17:02 36.679634 -120.435441 193 30894ft 494kts
10-May-18 17:03 36.544616 -120.461420 193 30895ft 494kts
10-May-18 17:04 36.409084 -120.487433 193 30896ft 494kts
10-May-18 17:05 36.274287 -120.513203 193 30897ft 494kts
10-May-18 17:06 36.139324 -120.538906 193 30900ft 493kts
10-May-18 17:07 36.004181 -120.564557 193 30926ft 493kts
10-May-18 17:08 35.883262 -120.587444 193 30682ft 497kts
10-May-18 17:09 35.771602 -120.608500 193 29168ft 494kts
10-May-18 17:10 35.675472 -120.643998 226 27730ft 472kts
10-May-18 17:11 35.643877 -120.784867 272 25839ft 452kts
10-May-18 17:12 35.673445 -120.915394 324 23827ft 407kts
10-May-18 17:13 35.778484 -120.933717 353 21749ft 379kts
10-May-18 17:14 35.883323 -120.939071 353 19250ft 376kts
10-May-18 17:15 35.985484 -120.937894 21 16776ft 373kts
10-May-18 17:16 36.011244 -120.826558 124 14497ft 384kts
10-May-18 17:17 35.921876 -120.768338 160 12066ft 347kts
10-May-18 17:18 35.840947 -120.729611 159 9535ft 295kts
10-May-18 17:19 35.757391 -120.689564 159 8992ft 298kts
10-May-18 17:20 35.682643 -120.656189 172 9014ft 295kts
10-May-18 17:21 35.601707 -120.640550 172 8085ft 290kts
10-May-18 17:22 35.523145 -120.625409 172 7094ft 286kts
10-May-18 17:23 35.444761 -120.610277 172 5712ft 281kts
10-May-18 17:24 35.370797 -120.595385 172 4252ft 273kts
10-May-18 17:25 35.301611 -120.581032 172 4034ft 226kts
10-May-18 17:26 35.241774 -120.566740 188 2649ft 218kts
10-May-18 17:27 35.217081 -120.604007 299 1255ft 136kts
10-May-18 17:28 35.236271 -120.638945 306 199ft 98kts
10-May-18 17:29 35.239925 -120.643849 64 180ft 0kts
10-May-18 17:30 35.238512 -120.641152 124 191ft 17kts
10-May-18 17:31 35.236170 -120.636811 122 208ft 11kts
10-May-18 17:32 35.236769 -120.636764 314 208ft 3kts
10-May-18 17:33 35.236905 -120.636368 162 209ft 0kts
10-May-18 17:34 35.236905 -120.636368 162 209ft 0kts
10-May-18 17:35 35.236905 -120.636368 162 209ft 0kts
10-May-18 17:36 35.236905 -120.636368 162 209ft 0kts

Navigation Log

Ident Type
Flight plan parsing failed, navigation log unavailable